createdAt,value
2022-08-19T02:36:21.265Z,99751.70
2022-08-19T02:38:54.814Z,99746.51
2022-08-19T02:41:26.750Z,99739.42
2022-08-19T02:44:22.749Z,99737.84
2022-08-19T02:46:35.009Z,99737.84
2022-08-19T02:49:07.084Z,99732.36
2022-08-19T02:51:39.952Z,99732.36
2022-08-19T02:54:11.201Z,99733.51
2022-08-19T02:56:41.895Z,99732.21
2022-08-19T02:59:12.254Z,99742.12
2022-08-19T03:01:43.448Z,99742.12
2022-08-19T03:04:16.721Z,99750.17
2022-08-19T03:06:48.144Z,99750.17
2022-08-19T03:09:17.959Z,99750.09
2022-08-19T03:11:48.672Z,99745.55
2022-08-19T03:14:19.346Z,99748.55
2022-08-19T03:16:50.936Z,99751.80
2022-08-19T03:19:22.739Z,99758.16
2022-08-19T03:21:53.073Z,99759.29
2022-08-19T03:24:22.998Z,99766.41
2022-08-19T03:26:56.775Z,99764.98
2022-08-19T03:29:30.747Z,99781.92
2022-08-19T03:31:59.885Z,99781.92
2022-08-19T03:34:33.097Z,99774.32
2022-08-19T03:37:05.614Z,99774.32
2022-08-19T03:39:34.813Z,99792.67
2022-08-19T03:42:32.361Z,99792.67
2022-08-19T03:44:37.207Z,99790.44
2022-08-19T03:47:07.097Z,99795.09
2022-08-19T03:49:36.859Z,99795.09
2022-08-19T03:52:08.056Z,99796.73
2022-08-19T03:54:39.298Z,99807.32
2022-08-19T03:57:10.145Z,99809.38
2022-08-19T03:59:40.355Z,99812.19
2022-08-19T04:02:12.609Z,99812.19
2022-08-19T04:04:44.549Z,99808.74
2022-08-19T04:07:17.481Z,99806.23
2022-08-19T04:09:46.804Z,99807.38
2022-08-19T04:12:16.165Z,99809.66
2022-08-19T04:14:45.644Z,99806.16
2022-08-19T04:17:15.244Z,99803.07
2022-08-19T04:19:44.354Z,99812.64
2022-08-19T04:22:13.734Z,99811.84
2022-08-19T04:24:42.843Z,99811.84
2022-08-19T04:27:12.049Z,99820.69
2022-08-19T04:29:41.646Z,99820.69
2022-08-19T04:32:10.874Z,99820.31
2022-08-19T04:35:01.368Z,99830.83
2022-08-19T04:37:13.033Z,99830.83
2022-08-19T04:40:02.347Z,99826.47
2022-08-19T04:42:40.125Z,99816.81
2022-08-19T04:45:12.520Z,99816.81
2022-08-19T04:47:48.315Z,99827.58
2022-08-19T04:50:15.986Z,99827.58
2022-08-19T04:52:45.186Z,99829.44
2022-08-19T04:55:15.708Z,99827.39
2022-08-19T04:57:45.040Z,99827.39
2022-08-19T05:00:14.781Z,99832.89
2022-08-19T05:02:44.139Z,99831.03
2022-08-19T05:05:13.861Z,99833.19
2022-08-19T05:07:43.236Z,99838.28
2022-08-19T05:10:13.672Z,99833.60
2022-08-19T05:12:42.861Z,99838.64
2022-08-19T05:15:12.467Z,99835.66
2022-08-19T05:17:43.206Z,99828.59
2022-08-19T05:20:31.142Z,99824.21
2022-08-19T05:23:00.345Z,99840.47
2022-08-19T05:25:29.569Z,99840.47
2022-08-19T05:27:58.741Z,99836.86
2022-08-19T05:30:46.026Z,99839.51
2022-08-19T05:32:58.801Z,99839.51
2022-08-19T05:35:29.426Z,99833.64
2022-08-19T05:38:00.246Z,99826.70
2022-08-19T05:40:29.749Z,99826.70
2022-08-19T05:42:58.969Z,99843.20
2022-08-19T05:45:29.172Z,99847.34
2022-08-19T05:47:58.680Z,99843.97
2022-08-19T05:50:28.488Z,99843.27
2022-08-19T05:52:57.900Z,99843.41
2022-08-19T05:55:27.301Z,99837.47
2022-08-19T05:57:56.502Z,99842.00
2022-08-19T06:00:26.115Z,99848.42
2022-08-19T06:02:56.977Z,99856.05
2022-08-19T06:05:26.276Z,99853.09
2022-08-19T06:07:55.655Z,99855.42
2022-08-19T06:10:25.260Z,99857.41
2022-08-19T06:12:54.988Z,99858.09
2022-08-19T06:15:25.728Z,99861.97
2022-08-19T06:17:54.929Z,99861.97
2022-08-19T06:20:45.885Z,99858.94
2022-08-19T06:22:55.551Z,99860.62
2022-08-19T06:25:28.864Z,99865.06
2022-08-19T06:28:13.971Z,99865.06
2022-08-19T06:30:26.489Z,99867.64
2022-08-19T06:32:55.921Z,99872.94
2022-08-19T06:35:25.223Z,99865.31
2022-08-19T06:37:55.253Z,99865.31
2022-08-19T06:40:24.745Z,99866.11
2022-08-19T06:42:55.264Z,99863.32
2022-08-19T06:45:34.507Z,99878.52
2022-08-19T06:47:57.764Z,99879.14
2022-08-19T06:50:27.265Z,99879.14
2022-08-19T06:52:56.780Z,99878.61
2022-08-19T06:55:25.977Z,99884.17
2022-08-19T06:57:55.168Z,99874.48
2022-08-19T07:00:24.536Z,99874.48
2022-08-19T07:02:59.073Z,99884.56
2022-08-19T07:05:25.335Z,99882.77
2022-08-19T07:07:54.626Z,99881.71
2022-08-19T07:10:26.391Z,99887.61
2022-08-19T07:12:55.769Z,99887.61
2022-08-19T07:15:25.301Z,99891.22
2022-08-19T07:17:54.594Z,99881.82
2022-08-19T07:20:28.523Z,99886.82
2022-08-19T07:22:56.065Z,99903.02
2022-08-19T07:25:32.352Z,99903.02
2022-08-19T07:27:56.571Z,99907.27
2022-08-19T07:30:26.486Z,99900.99
2022-08-19T07:32:55.718Z,99900.99
2022-08-19T07:35:26.318Z,99895.75
2022-08-19T07:37:55.577Z,99899.45
2022-08-19T07:40:25.545Z,99900.89
2022-08-19T07:42:54.689Z,99896.13
2022-08-19T07:45:23.891Z,99901.02
2022-08-19T07:47:53.738Z,99895.45
2022-08-19T07:50:23.689Z,99901.92
2022-08-19T07:52:52.985Z,99897.26
2022-08-19T07:55:42.262Z,99890.38
2022-08-19T07:57:56.202Z,99890.38
2022-08-19T08:00:25.741Z,99881.19
2022-08-19T08:02:56.202Z,99892.59
2022-08-19T08:05:44.506Z,99890.08
2022-08-19T08:08:34.977Z,99885.98
2022-08-19T08:11:05.191Z,99893.13
2022-08-19T08:13:36.671Z,99898.21
2022-08-19T08:16:10.173Z,99902.16
2022-08-19T08:18:40.911Z,99902.16
2022-08-19T08:21:10.491Z,99894.94
2022-08-19T08:23:39.828Z,99882.02
2022-08-19T08:26:08.994Z,99882.02
2022-08-19T08:28:38.924Z,99886.87
2022-08-19T08:31:09.681Z,99892.58
2022-08-19T08:33:39.165Z,99896.80
2022-08-19T08:36:10.724Z,99896.80
2022-08-19T08:38:41.863Z,99896.02
2022-08-19T08:41:36.332Z,99896.02
2022-08-19T08:44:06.252Z,99900.45
2022-08-19T08:46:44.150Z,99900.06
2022-08-19T08:49:22.051Z,99910.44
2022-08-19T08:52:09.470Z,99910.44
2022-08-19T08:54:49.081Z,99897.80
2022-08-19T08:57:23.922Z,99898.14
2022-08-19T08:59:55.502Z,99898.14
2022-08-19T09:02:24.807Z,99887.34
2022-08-19T09:04:54.096Z,99880.72
2022-08-19T09:07:35.802Z,99884.41
2022-08-19T09:10:02.337Z,99884.41
2022-08-19T09:12:37.152Z,99891.44
2022-08-19T09:15:12.701Z,99882.09
2022-08-19T09:17:41.918Z,99870.91
2022-08-19T09:20:16.912Z,99870.91
2022-08-19T09:22:46.814Z,99884.81
2022-08-19T09:25:26.865Z,99884.81
2022-08-19T09:27:51.183Z,99887.05
2022-08-19T09:30:23.355Z,99874.27
2022-08-19T09:32:54.804Z,99884.52
2022-08-19T09:35:26.102Z,99884.52
2022-08-19T09:37:59.493Z,99885.48
2022-08-19T09:40:37.720Z,99883.50
2022-08-19T09:43:09.829Z,99880.48
2022-08-19T09:45:34.985Z,99876.12
2022-08-19T09:48:04.357Z,99872.84
2022-08-19T09:50:35.026Z,99873.69
2022-08-19T09:53:04.165Z,99881.02
2022-08-19T09:55:34.997Z,99876.00
2022-08-19T09:58:04.724Z,99879.64
2022-08-19T10:00:33.903Z,99874.34
2022-08-19T10:03:03.530Z,99875.52
2022-08-19T10:05:55.271Z,99869.64
2022-08-19T10:08:28.239Z,99869.64
2022-08-19T10:10:58.965Z,99866.80
2022-08-19T10:13:30.833Z,99878.55
2022-08-19T10:16:08.865Z,99879.95
2022-08-19T10:18:44.156Z,99877.69
2022-08-19T10:21:19.101Z,99877.69
2022-08-19T10:23:51.014Z,99870.96
2022-08-19T10:26:30.705Z,99870.96
2022-08-19T10:29:00.736Z,99866.03
2022-08-19T10:32:00.688Z,99858.11
2022-08-19T10:34:03.821Z,99861.73
2022-08-19T10:36:39.848Z,99861.14
2022-08-19T10:39:13.862Z,99861.14
2022-08-19T10:41:44.563Z,99868.36
2022-08-19T10:44:17.159Z,99863.79
2022-08-19T10:46:48.959Z,99858.30
2022-08-19T10:49:20.421Z,99860.02
2022-08-19T10:52:07.603Z,99860.02
2022-08-19T10:54:56.298Z,99863.37
2022-08-19T10:57:36.885Z,99855.77
2022-08-19T10:59:59.524Z,99857.80
2022-08-19T11:02:28.552Z,99856.14
2022-08-19T11:05:00.768Z,99863.28
2022-08-19T11:07:28.362Z,99856.69
2022-08-19T11:09:57.564Z,99856.29
2022-08-19T11:12:26.721Z,99843.58
2022-08-19T11:14:56.080Z,99858.86
2022-08-19T11:17:25.337Z,99849.13
2022-08-19T11:19:54.464Z,99844.83
2022-08-19T11:22:28.800Z,99844.83
2022-08-19T11:24:56.603Z,99849.49
2022-08-19T11:27:25.694Z,99847.91
2022-08-19T11:29:55.404Z,99840.72
2022-08-19T11:32:24.565Z,99840.72
2022-08-19T11:34:53.705Z,99837.17
2022-08-19T11:37:22.911Z,99837.17
2022-08-19T11:39:53.823Z,99834.84
2022-08-19T11:42:40.548Z,99828.00
2022-08-19T11:45:10.424Z,99828.00
2022-08-19T11:47:40.069Z,99829.28
2022-08-19T11:50:09.527Z,99820.59
2022-08-19T11:52:39.865Z,99817.41
2022-08-19T11:55:09.925Z,99814.21
2022-08-19T11:57:39.038Z,99805.61
2022-08-19T12:00:10.882Z,99805.61
2022-08-19T12:02:40.600Z,99814.78
2022-08-19T12:05:12.576Z,99807.06
2022-08-19T12:07:42.771Z,99808.46
2022-08-19T12:10:12.290Z,99796.67
2022-08-19T12:12:42.950Z,99788.27
2022-08-19T12:15:13.161Z,99788.27
2022-08-19T12:17:43.860Z,99786.27
2022-08-19T12:20:14.722Z,99786.27
2022-08-19T12:22:45.188Z,99791.72
2022-08-19T12:25:14.770Z,99795.48
2022-08-19T12:27:49.610Z,99790.44
2022-08-19T12:30:15.469Z,99788.02
2022-08-19T12:32:44.576Z,99791.00
2022-08-19T12:35:13.800Z,99791.00
2022-08-19T12:37:54.859Z,99789.39
2022-08-19T12:40:19.641Z,99789.39
2022-08-19T12:42:50.586Z,99789.28
2022-08-19T12:45:20.867Z,99798.58
2022-08-19T12:47:50.706Z,99799.10
2022-08-19T12:50:22.553Z,99796.47
2022-08-19T12:52:51.921Z,99802.88
2022-08-19T12:55:21.286Z,99796.42
2022-08-19T12:57:51.951Z,99788.22
2022-08-19T13:00:23.698Z,99788.62
2022-08-19T13:02:54.428Z,99791.67
2022-08-19T13:05:26.568Z,99800.31
2022-08-19T13:07:57.665Z,99804.70
2022-08-19T13:10:30.298Z,99804.70
2022-08-19T13:13:00.868Z,99801.83
2022-08-19T13:15:31.510Z,99801.83
2022-08-19T13:18:01.067Z,99810.95
2022-08-19T13:20:30.366Z,99803.09
2022-08-19T13:22:59.599Z,99803.09
2022-08-19T13:25:28.867Z,99809.62
2022-08-19T13:27:57.964Z,99818.42
2022-08-19T13:30:45.357Z,99818.42
2022-08-19T13:33:17.858Z,99820.97
2022-08-19T13:35:54.452Z,99827.11
2022-08-19T13:38:24.240Z,99827.11
2022-08-19T13:40:55.165Z,99822.33
2022-08-19T13:43:27.816Z,99818.48
2022-08-19T13:45:58.716Z,99823.22
2022-08-19T13:48:28.887Z,99823.22
2022-08-19T13:50:58.422Z,99835.52
2022-08-19T13:53:27.831Z,99853.88
2022-08-19T13:55:57.512Z,99856.14
2022-08-19T13:58:26.584Z,99856.14
2022-08-19T14:00:55.665Z,99877.70
2022-08-19T14:03:25.033Z,99877.70
2022-08-19T14:05:54.139Z,99883.11
2022-08-19T14:08:23.425Z,99903.78
2022-08-19T14:10:52.624Z,99903.78
2022-08-19T14:13:24.174Z,99898.55
2022-08-19T14:15:54.293Z,99896.17
2022-08-19T14:18:23.491Z,99896.17
2022-08-19T14:20:56.687Z,99899.34
2022-08-19T14:23:25.985Z,99919.82
2022-08-19T14:25:58.952Z,99919.82
2022-08-19T14:28:28.306Z,99928.83
2022-08-19T14:30:57.466Z,99928.83
2022-08-19T14:33:28.284Z,99935.95
2022-08-19T14:36:00.018Z,99936.58
2022-08-19T14:38:31.346Z,99948.92
2022-08-19T14:41:20.835Z,99946.97
2022-08-19T14:43:51.500Z,99947.27
2022-08-19T14:46:23.480Z,99941.12
2022-08-19T14:48:54.832Z,99941.12
2022-08-19T14:51:28.275Z,99952.76
2022-08-19T14:53:57.849Z,99954.61
2022-08-19T14:56:30.207Z,99954.61
2022-08-19T14:59:01.144Z,99961.34
2022-08-19T15:01:30.808Z,99970.48
2022-08-19T15:04:00.257Z,99970.48
2022-08-19T15:06:30.301Z,99964.16
2022-08-19T15:09:04.020Z,99972.04
2022-08-19T15:11:33.481Z,99970.54
2022-08-19T15:14:03.409Z,99975.70
2022-08-19T15:16:32.806Z,99981.98
2022-08-19T15:19:02.414Z,99995.77
2022-08-19T15:21:32.443Z,99995.77
2022-08-19T15:24:02.575Z,100019.13
2022-08-19T15:26:33.640Z,100019.13
2022-08-19T15:29:03.793Z,100008.77
2022-08-19T15:31:35.305Z,100001.12
2022-08-19T15:34:07.138Z,100001.12
2022-08-19T15:36:36.732Z,100005.50
2022-08-19T15:39:07.806Z,100013.17
2022-08-19T15:41:37.459Z,100007.20
2022-08-19T15:44:12.461Z,100014.31
2022-08-19T15:46:44.197Z,100011.83
2022-08-19T15:49:15.171Z,100011.83
2022-08-19T15:51:46.687Z,99992.06
2022-08-19T15:54:20.727Z,99988.02
2022-08-19T15:57:09.694Z,99988.02
2022-08-19T16:00:02.380Z,100000.39
2022-08-19T16:02:48.072Z,99963.61
2022-08-19T16:05:37.632Z,99963.61
2022-08-19T16:08:09.872Z,99956.63
2022-08-19T16:10:40.810Z,99940.68
2022-08-19T16:13:11.305Z,99940.68
2022-08-19T16:15:42.421Z,99930.89
2022-08-19T16:18:11.665Z,99925.37
2022-08-19T16:20:41.334Z,99927.56
2022-08-19T16:23:11.628Z,99917.52
2022-08-19T16:25:41.326Z,99917.52
2022-08-19T16:28:11.079Z,99923.31
2022-08-19T16:30:42.082Z,99937.47
2022-08-19T16:33:12.870Z,99945.48
2022-08-19T16:35:44.446Z,99945.48
2022-08-19T16:38:14.899Z,99965.54
2022-08-19T16:40:46.774Z,99984.22
2022-08-19T16:43:15.026Z,100004.22
2022-08-19T16:45:44.443Z,100004.22
2022-08-19T16:48:13.710Z,100024.38
2022-08-19T16:50:49.631Z,100013.05
2022-08-19T16:53:17.192Z,100007.08
2022-08-19T16:55:49.682Z,100016.41
2022-08-19T16:58:28.302Z,100023.72
2022-08-19T17:01:01.857Z,100010.66
2022-08-19T17:03:35.645Z,100009.65
2022-08-19T17:06:04.226Z,100009.65
2022-08-19T17:08:34.741Z,100014.34
2022-08-19T17:11:17.734Z,100015.45
2022-08-19T17:13:35.874Z,100015.58
2022-08-19T17:16:05.758Z,100006.45
2022-08-19T17:18:35.509Z,100009.95
2022-08-19T17:21:04.821Z,100009.95
2022-08-19T17:23:36.723Z,100021.52
2022-08-19T17:26:05.912Z,100021.52
2022-08-19T17:28:35.213Z,100019.05
2022-08-19T17:31:06.201Z,100012.08
2022-08-19T17:33:41.082Z,100018.73
2022-08-19T17:36:08.827Z,100018.73
2022-08-19T17:38:39.239Z,99999.72
2022-08-19T17:41:08.438Z,99999.72
2022-08-19T17:43:43.365Z,99992.12
2022-08-19T17:46:11.236Z,99990.00
2022-08-19T17:48:40.966Z,99983.88
2022-08-19T17:51:25.292Z,99976.11
2022-08-19T17:53:55.732Z,99972.77
2022-08-19T17:56:28.043Z,99965.27
2022-08-19T17:59:00.134Z,99961.95
2022-08-19T18:01:45.824Z,99961.88
2022-08-19T18:04:05.145Z,99964.97
2022-08-19T18:06:35.899Z,99968.08
2022-08-19T18:09:07.544Z,99966.58
2022-08-19T18:11:37.131Z,99969.58
2022-08-19T18:14:09.858Z,99968.09
2022-08-19T18:16:40.386Z,99980.23
2022-08-19T18:19:09.877Z,99980.23
2022-08-19T18:21:40.500Z,99984.59
2022-08-19T18:24:10.086Z,99984.64
2022-08-19T18:26:40.075Z,99995.17
2022-08-19T18:29:09.867Z,99998.95
2022-08-19T18:31:39.651Z,99995.14
2022-08-19T18:34:10.363Z,99993.47
2022-08-19T18:36:53.452Z,99993.47
2022-08-19T18:39:29.311Z,99991.37
2022-08-19T18:42:18.025Z,99996.41
2022-08-19T18:45:05.626Z,99996.41
2022-08-19T18:47:52.525Z,99994.93
2022-08-19T18:50:21.744Z,99989.19
2022-08-19T18:52:50.849Z,99990.76
2022-08-19T18:55:20.179Z,99987.58
2022-08-19T18:57:50.951Z,100000.38
2022-08-19T19:00:23.679Z,100011.00
2022-08-19T19:02:54.375Z,100011.00
2022-08-19T19:05:25.778Z,100006.06
2022-08-19T19:07:55.268Z,100005.52
2022-08-19T19:10:24.528Z,100005.52
2022-08-19T19:12:53.824Z,100006.86
2022-08-19T19:15:23.122Z,100005.19
2022-08-19T19:17:52.246Z,100005.19
2022-08-19T19:20:21.728Z,100000.98
2022-08-19T19:22:51.536Z,100000.14
2022-08-19T19:25:22.478Z,99996.08
2022-08-19T19:27:54.492Z,100001.59
2022-08-19T19:30:25.377Z,99997.56
2022-08-19T19:32:56.118Z,99997.42
2022-08-19T19:35:25.819Z,99997.42
2022-08-19T19:37:55.255Z,100013.55
2022-08-19T19:40:24.610Z,100013.50
2022-08-19T19:42:55.370Z,100012.39
2022-08-19T19:45:25.067Z,100020.53
2022-08-19T19:47:54.439Z,100024.72
2022-08-19T19:50:23.610Z,100024.72
2022-08-19T19:52:52.667Z,100027.69
2022-08-19T19:55:21.770Z,100041.41
2022-08-19T19:57:51.147Z,100041.41
2022-08-19T20:00:21.211Z,100037.79
2022-08-19T20:02:51.189Z,100062.59
2022-08-19T20:05:22.134Z,100062.59
2022-08-19T20:08:11.617Z,100061.66
2022-08-19T20:10:42.146Z,100067.13
2022-08-19T20:13:14.849Z,100063.38
2022-08-19T20:15:47.188Z,100054.28
2022-08-19T20:18:16.284Z,100054.28
2022-08-19T20:20:47.573Z,100056.00
2022-08-19T20:23:18.185Z,100059.13
2022-08-19T20:25:47.876Z,100052.69
2022-08-19T20:28:17.371Z,100050.34
2022-08-19T20:30:48.068Z,100052.08
2022-08-19T20:33:17.710Z,100046.45
2022-08-19T20:35:47.227Z,100043.84
2022-08-19T20:38:16.429Z,100045.62
2022-08-19T20:40:45.716Z,100059.75
2022-08-19T20:43:15.847Z,100066.55
2022-08-19T20:45:45.684Z,100066.55
2022-08-19T20:48:14.973Z,100061.05
2022-08-19T20:50:44.308Z,100068.39
2022-08-19T20:53:16.747Z,100055.45
2022-08-19T20:55:49.630Z,100055.45
2022-08-19T20:58:21.602Z,100056.83
2022-08-19T21:00:53.022Z,100052.84
2022-08-19T21:03:26.550Z,100058.30
2022-08-19T21:05:56.080Z,100068.98
2022-08-19T21:08:29.070Z,100070.97
2022-08-19T21:10:59.132Z,100070.41
2022-08-19T21:13:28.693Z,100047.09
2022-08-19T21:15:58.497Z,100043.87
2022-08-19T21:18:28.951Z,100052.17
2022-08-19T21:21:01.838Z,100039.89
2022-08-19T21:23:32.424Z,100039.13
2022-08-19T21:26:02.762Z,100037.05
2022-08-19T21:28:36.123Z,100031.55
2022-08-19T21:31:04.002Z,100018.20
2022-08-19T21:33:33.300Z,100014.45
2022-08-19T21:36:03.311Z,100014.45
2022-08-19T21:38:32.929Z,100009.00
2022-08-19T21:41:05.753Z,100009.00
2022-08-19T21:43:35.844Z,99999.73
2022-08-19T21:46:05.146Z,100001.88
2022-08-19T21:48:34.334Z,99982.45
2022-08-19T21:51:03.549Z,99982.45
2022-08-19T21:53:34.522Z,99987.86
2022-08-19T21:56:06.657Z,99987.86
2022-08-19T21:58:42.057Z,99995.06
2022-08-19T22:01:12.314Z,99985.37
2022-08-19T22:03:41.587Z,99989.81
2022-08-19T22:06:11.606Z,100002.61
2022-08-19T22:08:42.495Z,100009.88
2022-08-19T22:11:13.039Z,100014.90
2022-08-19T22:13:42.410Z,100014.90
2022-08-19T22:16:13.480Z,99998.09
2022-08-19T22:18:42.749Z,100003.52
2022-08-19T22:21:12.428Z,100009.54
2022-08-19T22:23:44.534Z,100012.42
2022-08-19T22:26:15.515Z,100002.59
2022-08-19T22:28:45.549Z,100005.27
2022-08-19T22:31:18.052Z,100003.66
2022-08-19T22:33:47.288Z,99999.34
2022-08-19T22:36:17.855Z,100010.14
2022-08-19T22:38:47.053Z,100010.14
2022-08-19T22:41:16.567Z,100015.70
2022-08-19T22:43:46.889Z,100020.52
2022-08-19T22:46:17.712Z,100011.56
2022-08-19T22:48:48.341Z,100013.39
2022-08-19T22:51:37.108Z,100013.39
2022-08-19T22:54:07.142Z,100017.60
2022-08-19T22:56:36.551Z,100004.98
2022-08-19T22:59:06.342Z,99999.08
2022-08-19T23:01:36.547Z,99998.98
2022-08-19T23:04:06.090Z,99992.70
2022-08-19T23:06:39.129Z,99988.71
2022-08-19T23:09:08.800Z,99988.48
2022-08-19T23:11:41.571Z,99987.45
2022-08-19T23:14:12.830Z,99989.20
2022-08-19T23:16:42.911Z,99990.89
2022-08-19T23:19:13.019Z,99990.89
2022-08-19T23:21:43.581Z,99986.86
2022-08-19T23:24:13.295Z,99981.91
2022-08-19T23:26:44.002Z,99982.80
2022-08-19T23:29:31.229Z,99974.06
2022-08-19T23:32:00.331Z,99989.53
2022-08-19T23:34:29.539Z,99983.79
2022-08-19T23:36:58.711Z,99985.56
2022-08-19T23:39:29.385Z,99985.83
2022-08-19T23:41:58.745Z,99982.72
2022-08-19T23:44:27.954Z,99982.72
2022-08-19T23:46:57.864Z,99990.91
2022-08-19T23:49:27.276Z,99987.20
2022-08-19T23:51:56.618Z,99989.16
2022-08-19T23:54:32.030Z,99978.02
2022-08-19T23:56:57.612Z,99986.08
2022-08-19T23:59:26.741Z,99979.33
